Terminal Aerodrome Forecast
Issued by NWS Binghamton, NY

Home | Current Version | Previous Version | Text Only | Print | Product List | Glossary On
Versions: 1 2 3 4 5 6 7 8 9 10 11 12 13 14 15 16 17 18 19 20 21 22 23 24 25 26 27 28 29 30 31 32 33 34
000
FTUS41 KBGM 160800 AAA
TAFSYR
TAF AMD
KSYR 160833Z 1609/1706 30010G18KT P6SM -SHSN SCT025 BKN035
     FM161300 33010KT P6SM SCT025 BKN035
     FM161600 35008KT P6SM SCT035
     FM170200 VRB03KT P6SM SCT250=

USA.gov is the U.S. government's official web portal to all federal, state and local government web resources and services.